createdAt,value
2019-03-01T00:01:20.511Z,45.00
2019-03-01T00:03:54.825Z,50.43
2019-03-01T00:06:26.137Z,47.73
2019-03-01T00:09:07.283Z,49.93
2019-03-01T00:11:43.101Z,49.53
2019-03-01T00:14:24.158Z,53.57
2019-03-01T00:17:01.922Z,48.47
2019-03-01T00:19:38.910Z,49.17
2019-03-01T00:22:23.262Z,51.53
2019-03-01T00:26:04.375Z,42.43
2019-03-01T00:28:36.886Z,41.17
2019-03-01T00:31:17.756Z,44.00
2019-03-01T00:34:25.794Z,44.23
2019-03-01T00:37:14.150Z,45.10
2019-03-01T00:39:53.524Z,41.33
2019-03-01T00:42:31.124Z,41.73
2019-03-01T00:44:58.058Z,46.50
2019-03-01T00:47:24.995Z,32.40
2019-03-01T00:49:52.027Z,40.03
2019-03-01T00:52:18.921Z,38.50
2019-03-01T00:54:45.873Z,35.37
2019-03-01T00:57:12.823Z,38.50
2019-03-01T00:59:39.779Z,44.80
2019-03-01T01:02:06.741Z,40.63
2019-03-01T01:04:33.712Z,35.67
2019-03-01T01:07:00.638Z,33.60
2019-03-01T01:09:27.594Z,37.60
2019-03-01T01:11:54.522Z,39.63
2019-03-01T01:14:21.478Z,39.83
2019-03-01T01:16:48.398Z,47.83
2019-03-01T01:19:15.302Z,37.10
2019-03-01T01:21:42.244Z,34.53
2019-03-01T01:24:09.168Z,49.37
2019-03-01T01:26:36.099Z,41.77
2019-03-01T01:29:03.024Z,50.27
2019-03-01T01:31:29.925Z,51.73
2019-03-01T01:33:57.031Z,54.30
2019-03-01T01:36:24.278Z,51.27
2019-03-01T01:38:51.326Z,55.27
2019-03-01T01:41:18.241Z,52.83
2019-03-01T01:43:45.217Z,57.07
2019-03-01T01:46:12.193Z,52.93
2019-03-01T01:48:39.110Z,54.23
2019-03-01T01:51:06.010Z,55.00
2019-03-01T01:53:32.973Z,56.57
2019-03-01T01:55:59.884Z,61.97
2019-03-01T01:58:26.797Z,55.13
2019-03-01T02:00:53.822Z,53.50
2019-03-01T02:03:20.758Z,49.37
2019-03-01T02:05:47.667Z,46.80
2019-03-01T02:08:14.599Z,59.20
2019-03-01T02:10:41.610Z,47.33
2019-03-01T02:13:08.561Z,56.33
2019-03-01T02:15:35.517Z,51.13
2019-03-01T02:18:02.513Z,48.13
2019-03-01T02:20:29.437Z,46.63
2019-03-01T02:22:56.406Z,50.77
2019-03-01T02:25:23.314Z,54.63
2019-03-01T02:27:50.245Z,47.67
2019-03-01T02:30:19.323Z,47.73
2019-03-01T02:32:47.537Z,53.03
2019-03-01T02:35:16.328Z,44.33
2019-03-01T02:37:43.282Z,51.23
2019-03-01T02:40:10.844Z,45.93
2019-03-01T02:42:37.757Z,51.33
2019-03-01T02:45:05.862Z,49.60
2019-03-01T02:47:32.786Z,49.73
2019-03-01T02:49:59.687Z,52.13
2019-03-01T02:52:26.658Z,54.70
2019-03-01T02:54:53.610Z,46.67
2019-03-01T02:57:20.507Z,48.73
2019-03-01T02:59:47.402Z,47.57
2019-03-01T03:02:14.311Z,43.93
2019-03-01T03:04:41.285Z,52.97
2019-03-01T03:07:16.829Z,47.40
2019-03-01T03:09:43.883Z,50.83
2019-03-01T03:12:10.833Z,50.77
2019-03-01T03:14:37.744Z,55.93
2019-03-01T03:17:04.671Z,54.07
2019-03-01T03:19:31.616Z,49.93
2019-03-01T03:21:58.569Z,53.33
2019-03-01T03:24:25.572Z,50.00
2019-03-01T03:26:52.612Z,51.80
2019-03-01T03:29:19.621Z,55.57
2019-03-01T03:31:46.535Z,52.83
2019-03-01T03:34:13.447Z,50.33
2019-03-01T03:36:40.397Z,49.47
2019-03-01T03:39:08.813Z,55.57
2019-03-01T03:41:35.763Z,53.87
2019-03-01T03:44:02.714Z,55.37
2019-03-01T03:46:29.630Z,51.17
2019-03-01T03:48:56.531Z,51.70
2019-03-01T03:51:23.440Z,48.73
2019-03-01T03:53:50.355Z,50.97
2019-03-01T03:56:17.288Z,46.40
2019-03-01T03:58:44.301Z,48.53
2019-03-01T04:01:11.258Z,59.77
2019-03-01T04:03:38.205Z,51.37
2019-03-01T04:06:05.178Z,47.37
2019-03-01T04:08:32.135Z,50.03
2019-03-01T04:10:59.058Z,53.13
2019-03-01T04:13:26.056Z,49.80
2019-03-01T04:15:53.062Z,49.23
2019-03-01T04:18:19.989Z,48.70
2019-03-01T04:20:46.926Z,57.90
2019-03-01T04:23:13.852Z,49.40
2019-03-01T04:25:40.765Z,57.60
2019-03-01T04:28:07.741Z,56.93
2019-03-01T04:30:34.657Z,56.63
2019-03-01T04:33:01.643Z,52.13
2019-03-01T04:35:28.593Z,55.07
2019-03-01T04:37:55.543Z,56.70
2019-03-01T04:40:22.499Z,58.77
2019-03-01T04:42:49.461Z,59.87
2019-03-01T04:45:16.481Z,64.03
2019-03-01T04:47:43.452Z,65.57
2019-03-01T04:50:10.479Z,56.00
2019-03-01T04:52:38.121Z,61.50
2019-03-01T04:55:09.554Z,63.47
2019-03-01T04:57:36.494Z,61.77
2019-03-01T05:00:04.427Z,65.63
2019-03-01T05:02:31.350Z,59.27
2019-03-01T05:04:58.385Z,54.27
2019-03-01T05:07:31.382Z,52.97
2019-03-01T05:09:58.330Z,57.00
2019-03-01T05:12:25.298Z,46.97
2019-03-01T05:14:52.307Z,51.47
2019-03-01T05:17:19.318Z,48.27
2019-03-01T05:19:46.331Z,54.00
2019-03-01T05:22:13.259Z,55.27
2019-03-01T05:24:40.882Z,55.30
2019-03-01T05:27:07.927Z,59.97
2019-03-01T05:29:34.961Z,54.00
2019-03-01T05:32:01.954Z,60.63
2019-03-01T05:34:28.911Z,54.37
2019-03-01T05:36:55.905Z,59.00
2019-03-01T05:39:22.819Z,64.73
2019-03-01T05:41:49.832Z,59.37
2019-03-01T05:44:16.829Z,54.70
2019-03-01T05:46:43.773Z,54.50
2019-03-01T05:49:10.753Z,61.87
2019-03-01T05:51:37.728Z,54.40
2019-03-01T05:54:04.698Z,63.50
2019-03-01T05:56:31.661Z,63.97
2019-03-01T05:59:07.324Z,66.37
2019-03-01T06:01:42.646Z,64.93
2019-03-01T06:04:18.627Z,61.73
2019-03-01T06:06:57.235Z,61.57
2019-03-01T06:09:32.356Z,58.50
2019-03-01T06:12:07.888Z,227.43
2019-03-01T06:16:55.460Z,69.07
2019-03-01T06:19:34.040Z,74.80
2019-03-01T06:24:19.928Z,62.60
2019-03-01T06:27:57.101Z,70.03
2019-03-01T06:30:51.615Z,74.93
2019-03-01T06:33:22.180Z,64.13
2019-03-01T06:35:56.073Z,76.07
2019-03-01T06:39:17.638Z,82.67
2019-03-01T06:41:57.882Z,81.83
2019-03-01T06:45:38.096Z,84.60
2019-03-01T06:48:05.126Z,91.63
2019-03-01T06:50:36.973Z,74.03
2019-03-01T06:53:04.127Z,82.80
2019-03-01T06:55:44.353Z,95.63
2019-03-01T06:58:14.754Z,82.47
2019-03-01T07:00:50.293Z,82.07
2019-03-01T07:03:11.519Z,72.30
2019-03-01T07:05:38.644Z,79.23
2019-03-01T07:08:05.705Z,77.53
2019-03-01T07:10:32.870Z,66.40
2019-03-01T07:13:00.023Z,93.30
2019-03-01T07:15:26.978Z,88.07
2019-03-01T07:17:54.608Z,103.63
2019-03-01T07:20:24.106Z,90.10
2019-03-01T07:22:51.140Z,78.70
2019-03-01T07:25:18.196Z,73.23
2019-03-01T07:27:45.186Z,83.73
2019-03-01T07:30:12.173Z,99.63
2019-03-01T07:32:39.166Z,80.50
2019-03-01T07:35:06.156Z,74.27
2019-03-01T07:37:33.185Z,79.37
2019-03-01T07:40:00.291Z,76.03
2019-03-01T07:42:27.303Z,69.47
2019-03-01T07:44:54.309Z,85.17
2019-03-01T07:47:21.299Z,82.27
2019-03-01T07:49:48.254Z,89.73
2019-03-01T07:52:15.236Z,77.90
2019-03-01T07:54:42.187Z,83.27
2019-03-01T07:57:11.518Z,77.27
2019-03-01T07:59:38.271Z,81.00
2019-03-01T08:02:04.121Z,80.30
2019-03-01T08:04:31.053Z,85.87
2019-03-01T08:06:58.052Z,85.53
2019-03-01T08:09:25.088Z,84.73
2019-03-01T08:11:52.058Z,80.87
2019-03-01T08:14:18.991Z,82.50
2019-03-01T08:16:45.972Z,75.63
2019-03-01T08:19:17.022Z,72.63
2019-03-01T08:21:42.705Z,74.37
2019-03-01T08:24:11.105Z,83.27
2019-03-01T08:26:35.907Z,80.87
2019-03-01T08:29:03.464Z,81.77
2019-03-01T08:31:30.123Z,87.27
2019-03-01T08:33:57.073Z,94.97
2019-03-01T08:36:24.725Z,87.83
2019-03-01T08:38:51.698Z,88.30
2019-03-01T08:41:21.609Z,87.10
2019-03-01T08:43:47.987Z,82.83
2019-03-01T08:46:13.504Z,92.13
2019-03-01T08:48:40.474Z,84.67
2019-03-01T08:51:07.498Z,100.53
2019-03-01T08:53:34.466Z,81.13
2019-03-01T08:56:01.558Z,94.57
2019-03-01T08:58:28.539Z,95.47
2019-03-01T09:00:59.670Z,90.57
2019-03-01T09:03:26.191Z,85.30
2019-03-01T09:05:53.208Z,79.23
2019-03-01T09:08:20.220Z,82.13
2019-03-01T09:10:47.225Z,78.13
2019-03-01T09:13:14.923Z,83.23
2019-03-01T09:15:41.882Z,96.20
2019-03-01T09:18:11.588Z,92.97
2019-03-01T09:20:38.625Z,86.40
2019-03-01T09:23:16.335Z,95.17
2019-03-01T09:25:30.738Z,81.10
2019-03-01T09:27:57.805Z,89.47
2019-03-01T09:30:24.886Z,93.73
2019-03-01T09:32:52.944Z,86.23
2019-03-01T09:35:31.549Z,86.33
2019-03-01T09:37:58.744Z,96.50
2019-03-01T09:40:28.860Z,76.53
2019-03-01T09:42:53.229Z,88.87
2019-03-01T09:45:20.203Z,84.17
2019-03-01T09:47:47.275Z,85.40
2019-03-01T09:50:14.281Z,89.77
2019-03-01T09:52:41.271Z,95.17
2019-03-01T09:55:08.305Z,104.00
2019-03-01T09:57:35.272Z,83.97
2019-03-01T10:00:02.223Z,101.77
2019-03-01T10:02:29.301Z,108.30
2019-03-01T10:04:56.333Z,105.97
2019-03-01T10:07:23.335Z,116.17
2019-03-01T10:09:50.340Z,97.57
2019-03-01T10:12:17.478Z,110.23
2019-03-01T10:14:44.451Z,116.03
2019-03-01T10:17:11.409Z,120.97
2019-03-01T10:19:38.391Z,110.73
2019-03-01T10:22:05.768Z,117.70
2019-03-01T10:24:32.894Z,119.70
2019-03-01T10:26:59.924Z,121.27
2019-03-01T10:29:26.954Z,98.53
2019-03-01T10:31:54.228Z,133.03
2019-03-01T10:34:21.316Z,119.33
2019-03-01T10:36:49.457Z,108.80
2019-03-01T10:39:16.503Z,116.23
2019-03-01T10:41:43.477Z,129.33
2019-03-01T10:44:10.459Z,138.87
2019-03-01T10:46:37.481Z,105.53
2019-03-01T10:49:04.481Z,111.80
2019-03-01T10:51:31.696Z,104.27
2019-03-01T10:53:58.703Z,115.70
2019-03-01T10:56:25.725Z,125.23
2019-03-01T10:58:52.903Z,104.33
2019-03-01T11:01:20.441Z,120.63
2019-03-01T11:03:47.425Z,93.67
2019-03-01T11:06:14.960Z,120.27
2019-03-01T11:08:42.060Z,106.20
2019-03-01T11:11:09.033Z,124.50
2019-03-01T11:13:36.064Z,112.97
2019-03-01T11:16:03.118Z,119.43
2019-03-01T11:18:30.852Z,108.03
2019-03-01T11:20:57.883Z,111.83
2019-03-01T11:23:24.842Z,106.67
2019-03-01T11:25:52.964Z,96.93
2019-03-01T11:28:19.953Z,105.07
2019-03-01T11:30:47.024Z,102.70
2019-03-01T11:33:14.647Z,101.17
2019-03-01T11:35:41.648Z,105.63
2019-03-01T11:38:08.683Z,100.30
2019-03-01T11:40:36.719Z,127.20
2019-03-01T11:43:04.245Z,100.87
2019-03-01T11:45:31.225Z,105.50
2019-03-01T11:47:58.248Z,99.93
2019-03-01T11:50:25.223Z,96.80
2019-03-01T11:52:52.323Z,89.07
2019-03-01T11:55:19.366Z,68.70
2019-03-01T11:57:46.466Z,87.67
2019-03-01T12:00:15.922Z,83.57
2019-03-01T12:02:42.980Z,86.57
2019-03-01T12:05:10.050Z,98.63
2019-03-01T12:07:37.064Z,99.77
2019-03-01T12:10:04.782Z,87.30
2019-03-01T12:12:31.792Z,77.00
2019-03-01T12:14:58.775Z,92.10
2019-03-01T12:17:25.782Z,89.03
2019-03-01T12:19:52.845Z,75.67
2019-03-01T12:22:19.823Z,69.43
2019-03-01T12:24:46.817Z,72.03
2019-03-01T12:27:13.837Z,90.07
2019-03-01T12:29:41.040Z,67.93
2019-03-01T12:32:08.065Z,68.73
2019-03-01T12:34:35.056Z,69.43
2019-03-01T12:37:02.200Z,69.50
2019-03-01T12:39:29.305Z,58.93
2019-03-01T12:41:56.316Z,52.60
2019-03-01T12:44:23.304Z,60.57
2019-03-01T12:46:50.297Z,57.60
2019-03-01T12:49:17.326Z,57.63
2019-03-01T12:51:44.401Z,59.67
2019-03-01T12:54:11.800Z,78.73
2019-03-01T12:56:38.818Z,46.60
2019-03-01T12:59:05.959Z,54.17
2019-03-01T13:01:32.870Z,54.83
2019-03-01T13:03:59.867Z,50.73
2019-03-01T13:06:26.929Z,65.20
2019-03-01T13:08:54.605Z,36.53
2019-03-01T13:11:21.587Z,40.60
2019-03-01T13:13:48.556Z,38.20
2019-03-01T13:16:15.522Z,31.20
2019-03-01T13:18:42.580Z,35.80
2019-03-01T13:21:12.499Z,36.83
2019-03-01T13:23:37.635Z,31.93
2019-03-01T13:26:06.174Z,30.40
2019-03-01T13:28:30.558Z,31.63
2019-03-01T13:30:57.589Z,36.67
2019-03-01T13:33:24.866Z,32.90
2019-03-01T13:35:51.802Z,31.87
2019-03-01T13:38:18.976Z,25.90
2019-03-01T13:40:45.966Z,31.53
2019-03-01T13:43:12.940Z,28.50
2019-03-01T13:45:39.958Z,30.07
2019-03-01T13:48:06.938Z,28.50
2019-03-01T13:50:34.166Z,26.43
2019-03-01T13:53:01.249Z,22.70
2019-03-01T13:55:28.169Z,29.03
2019-03-01T13:57:55.091Z,24.97
2019-03-01T14:00:22.080Z,19.87
2019-03-01T14:02:49.193Z,27.13
2019-03-01T14:05:17.173Z,27.30
2019-03-01T14:07:43.246Z,28.37
2019-03-01T14:10:11.531Z,29.53
2019-03-01T14:12:38.500Z,25.93
2019-03-01T14:15:08.180Z,28.17
2019-03-01T14:17:35.152Z,26.33
2019-03-01T14:20:02.132Z,31.23
2019-03-01T14:22:29.168Z,34.93
2019-03-01T14:24:56.248Z,28.70
2019-03-01T14:27:23.210Z,22.53
2019-03-01T14:29:53.485Z,21.37
2019-03-01T14:32:20.871Z,27.70
2019-03-01T14:34:47.709Z,27.13
2019-03-01T14:37:11.501Z,26.17
2019-03-01T14:39:38.506Z,29.77
2019-03-01T14:42:07.179Z,26.07
2019-03-01T14:44:33.880Z,36.20
2019-03-01T14:46:59.649Z,32.93
2019-03-01T14:49:26.609Z,32.93
2019-03-01T14:51:53.577Z,28.03
2019-03-01T14:54:21.372Z,24.90
2019-03-01T14:56:53.916Z,17.87
2019-03-01T14:59:24.868Z,16.73
2019-03-01T15:02:09.314Z,22.40
2019-03-01T15:04:36.348Z,20.57
2019-03-01T15:07:03.398Z,23.77
2019-03-01T15:09:36.219Z,26.87
2019-03-01T15:12:03.258Z,45.23
2019-03-01T15:14:30.360Z,25.00
2019-03-01T15:16:57.388Z,19.13
2019-03-01T15:19:25.025Z,24.73
2019-03-01T15:21:52.003Z,19.87
2019-03-01T15:24:18.977Z,19.10
2019-03-01T15:26:46.272Z,16.17
2019-03-01T15:29:13.103Z,25.03
2019-03-01T15:31:40.101Z,21.87
2019-03-01T15:34:07.077Z,20.40
2019-03-01T15:36:34.082Z,27.80
2019-03-01T15:39:01.049Z,14.50
2019-03-01T15:41:28.010Z,20.17
2019-03-01T15:43:54.989Z,20.17
2019-03-01T15:46:22.111Z,18.03
2019-03-01T15:48:49.129Z,19.00
2019-03-01T15:51:16.090Z,17.33
2019-03-01T15:53:43.226Z,21.60
2019-03-01T15:56:10.246Z,21.23
2019-03-01T15:58:37.190Z,13.77
2019-03-01T16:01:10.892Z,23.80
2019-03-01T16:03:34.386Z,23.87
2019-03-01T16:06:01.411Z,20.47
2019-03-01T16:08:28.355Z,18.43
2019-03-01T16:10:55.381Z,19.87
2019-03-01T16:13:22.350Z,23.50
2019-03-01T16:15:49.371Z,16.80
2019-03-01T16:18:16.385Z,20.40
2019-03-01T16:20:43.483Z,20.70
2019-03-01T16:23:11.069Z,34.87
2019-03-01T16:25:38.164Z,19.00
2019-03-01T16:28:05.112Z,16.77
2019-03-01T16:30:32.171Z,25.60
2019-03-01T16:33:03.864Z,178.87
2019-03-01T16:40:28.807Z,27.77
2019-03-01T16:42:55.849Z,25.80
2019-03-01T16:45:22.891Z,36.03
2019-03-01T16:47:49.951Z,43.57
2019-03-01T16:50:17.045Z,51.77
2019-03-01T16:52:44.002Z,44.60
2019-03-01T16:55:12.973Z,34.00
2019-03-01T16:57:39.987Z,41.13
2019-03-01T17:00:08.609Z,33.53
2019-03-01T17:02:38.701Z,26.40
2019-03-01T17:05:03.761Z,30.57
2019-03-01T17:07:29.779Z,20.33
2019-03-01T17:09:58.063Z,32.83
2019-03-01T17:12:25.074Z,28.00
2019-03-01T17:14:52.154Z,32.17
2019-03-01T17:17:19.168Z,59.50
2019-03-01T17:19:46.225Z,40.30
2019-03-01T17:22:13.235Z,43.27
2019-03-01T17:24:40.397Z,39.43
2019-03-01T17:27:07.436Z,52.40
2019-03-01T17:29:35.755Z,243.20
2019-03-01T17:32:06.974Z,177.03
2019-03-01T17:34:39.743Z,52.60
2019-03-01T17:37:06.773Z,24.17
2019-03-01T17:39:33.855Z,68.87
2019-03-01T17:42:00.854Z,42.87
2019-03-01T17:44:28.393Z,23.00
2019-03-01T17:46:56.459Z,47.80
2019-03-01T17:49:29.683Z,98.93
2019-03-01T17:51:56.523Z,44.13
2019-03-01T17:54:23.159Z,62.37
2019-03-01T17:56:50.291Z,48.40
2019-03-01T17:59:23.323Z,45.67
2019-03-01T18:01:49.191Z,40.87
2019-03-01T18:04:16.484Z,58.03
2019-03-01T18:06:43.504Z,36.07
2019-03-01T18:09:13.327Z,36.20
2019-03-01T18:11:40.659Z,43.83
2019-03-01T18:14:04.711Z,55.97
2019-03-01T18:16:31.706Z,27.93
2019-03-01T18:18:58.714Z,62.37
2019-03-01T18:21:25.715Z,34.47
2019-03-01T18:23:52.889Z,34.13
2019-03-01T18:26:19.935Z,55.10
2019-03-01T18:28:47.627Z,25.47
2019-03-01T18:31:14.654Z,49.63
2019-03-01T18:33:42.733Z,36.70
2019-03-01T18:36:08.858Z,30.80
2019-03-01T18:38:35.879Z,32.77
2019-03-01T18:41:02.913Z,28.27
2019-03-01T18:43:30.110Z,35.73
2019-03-01T18:45:57.132Z,22.67
2019-03-01T18:48:24.177Z,22.80
2019-03-01T18:50:51.255Z,17.83
2019-03-01T18:53:18.294Z,25.43
2019-03-01T18:55:45.316Z,28.30
2019-03-01T18:58:13.962Z,25.90
2019-03-01T19:00:39.423Z,38.30
2019-03-01T19:03:06.608Z,22.90
2019-03-01T19:05:36.559Z,23.00
2019-03-01T19:08:04.524Z,25.53
2019-03-01T19:10:28.736Z,23.30
2019-03-01T19:12:55.620Z,25.03
2019-03-01T19:15:22.631Z,24.27
2019-03-01T19:17:49.651Z,28.73
2019-03-01T19:20:18.828Z,23.63
2019-03-01T19:22:45.854Z,26.53
2019-03-01T19:25:13.093Z,30.27
2019-03-01T19:27:40.038Z,27.00
2019-03-01T19:30:10.516Z,22.03
2019-03-01T19:32:35.070Z,23.87
2019-03-01T19:35:02.079Z,41.40
2019-03-01T19:37:29.092Z,22.13
2019-03-01T19:39:56.064Z,22.73
2019-03-01T19:42:23.077Z,29.30
2019-03-01T19:44:50.072Z,21.33
2019-03-01T19:47:17.058Z,19.93
2019-03-01T19:49:45.231Z,16.80
2019-03-01T19:52:12.181Z,19.73
2019-03-01T19:54:38.116Z,32.87
2019-03-01T19:57:05.138Z,33.47
2019-03-01T19:59:32.132Z,33.70
2019-03-01T20:01:59.386Z,42.00
2019-03-01T20:04:26.739Z,29.23
2019-03-01T20:06:53.899Z,111.03
2019-03-01T20:09:20.917Z,27.50
2019-03-01T20:11:47.922Z,38.83
2019-03-01T20:14:16.875Z,32.53
2019-03-01T20:16:42.243Z,18.60
2019-03-01T20:19:09.277Z,31.77
2019-03-01T20:21:36.399Z,26.73
2019-03-01T20:24:05.263Z,27.23
2019-03-01T20:26:30.438Z,20.17
2019-03-01T20:28:58.648Z,34.47
2019-03-01T20:31:25.713Z,18.97
2019-03-01T20:33:52.945Z,29.07
2019-03-01T20:36:19.946Z,32.40
2019-03-01T20:38:46.973Z,17.90
2019-03-01T20:41:14.994Z,29.30
2019-03-01T20:43:41.719Z,27.03
2019-03-01T20:46:08.490Z,43.10
2019-03-01T20:48:35.483Z,39.10
2019-03-01T20:51:02.471Z,59.43
2019-03-01T20:53:29.502Z,46.80
2019-03-01T20:55:56.551Z,21.93
2019-03-01T20:58:24.375Z,21.13
2019-03-01T21:00:52.321Z,24.30
2019-03-01T21:03:19.353Z,43.73
2019-03-01T21:05:46.499Z,62.80
2019-03-01T21:08:14.616Z,28.47
2019-03-01T21:10:41.618Z,32.83
2019-03-01T21:13:12.484Z,38.87
2019-03-01T21:15:37.765Z,48.07
2019-03-01T21:18:04.410Z,36.73
2019-03-01T21:20:31.394Z,45.43
2019-03-01T21:22:58.412Z,44.77
2019-03-01T21:25:25.423Z,31.67
2019-03-01T21:32:50.763Z,29.57
2019-03-01T21:35:16.674Z,36.53
2019-03-01T21:37:42.192Z,26.57
2019-03-01T21:40:09.216Z,25.87
2019-03-01T21:42:36.193Z,27.87
2019-03-01T21:45:03.451Z,46.03
2019-03-01T21:47:31.023Z,14.30
2019-03-01T21:49:59.948Z,28.60
2019-03-01T21:52:26.535Z,26.03
2019-03-01T21:54:54.236Z,30.90
2019-03-01T22:02:20.968Z,34.87
2019-03-01T22:04:48.114Z,23.17
2019-03-01T22:07:17.285Z,54.23
2019-03-01T22:09:44.412Z,16.67
2019-03-01T22:12:11.392Z,16.03
2019-03-01T22:14:38.353Z,19.23
2019-03-01T22:17:05.332Z,33.40
2019-03-01T22:19:33.640Z,34.43
2019-03-01T22:22:00.196Z,38.97
2019-03-01T22:24:27.384Z,28.33
2019-03-01T22:26:54.261Z,18.53
2019-03-01T22:29:21.251Z,18.53
2019-03-01T22:31:48.375Z,53.17
2019-03-01T22:34:15.404Z,21.30
2019-03-01T22:36:43.004Z,19.70
2019-03-01T22:39:09.954Z,28.60
2019-03-01T22:41:39.309Z,16.23
2019-03-01T22:44:03.913Z,34.40
2019-03-01T22:46:31.599Z,19.03
2019-03-01T22:48:58.564Z,12.33
2019-03-01T22:51:25.480Z,30.00
2019-03-01T22:53:53.461Z,41.97
2019-03-01T22:56:22.517Z,24.13
2019-03-01T22:58:47.474Z,21.03
2019-03-01T23:01:19.930Z,25.17
2019-03-01T23:03:51.560Z,15.67
2019-03-01T23:06:17.857Z,18.70
2019-03-01T23:08:45.447Z,31.20
2019-03-01T23:11:12.407Z,23.33
2019-03-01T23:13:40.306Z,28.33
2019-03-01T23:16:07.922Z,32.50
2019-03-01T23:18:37.558Z,23.13
2019-03-01T23:21:03.057Z,23.17
2019-03-01T23:23:30.238Z,37.47
2019-03-01T23:25:57.257Z,38.07
2019-03-01T23:28:24.238Z,24.33
2019-03-01T23:30:51.288Z,22.43
2019-03-01T23:33:18.266Z,15.87
2019-03-01T23:35:46.140Z,31.83
2019-03-01T23:38:15.761Z,30.80
2019-03-01T23:40:42.040Z,44.87
2019-03-01T23:43:09.652Z,48.80
2019-03-01T23:45:36.634Z,47.27
2019-03-01T23:48:03.590Z,15.80
2019-03-01T23:50:31.555Z,23.13
2019-03-01T23:52:58.928Z,37.63
2019-03-01T23:55:24.465Z,61.13
2019-03-01T23:57:51.408Z,41.57
